Time;durP1;ratioP1;P1;durP2;ratioP2;P2;SDS_P1;SDS_P2;PMS_P1;PMS_P2;Temp;Humidity;BMP_temperature;BMP_pressure;BME280_temperature;BME280_humidity;BME280_pressure;Samples;Min_cycle;Max_cycle;Signal;HPM_P1;HPM_P2
2023/06/15 00:01:04;;;;;;;4.72;1.83;;;14.20;99.90;;;12.85;100.00;97625.84;4985312;28;20317;-74
2023/06/15 00:03:32;;;;;;;4.82;1.88;;;14.20;99.90;;;12.85;100.00;97635.44;4993561;28;20073;-74
2023/06/15 00:05:59;;;;;;;3.83;1.70;;;14.10;99.90;;;12.92;100.00;97634.19;4978132;28;20050;-74
2023/06/15 00:08:27;;;;;;;3.78;2.10;;;14.10;99.90;;;12.81;100.00;97642.53;4981215;28;20096;-74
2023/06/15 00:10:54;;;;;;;5.88;2.90;;;14.10;99.90;;;12.86;100.00;97637.09;4980896;28;20056;-74
2023/06/15 00:13:22;;;;;;;2.97;1.75;;;14.10;99.90;;;12.79;100.00;97636.56;4981692;28;20042;-74
2023/06/15 00:15:49;;;;;;;3.28;1.95;;;14.10;99.90;;;12.72;100.00;97640.41;4980307;28;20502;-74
2023/06/15 00:18:17;;;;;;;6.45;2.13;;;14.10;99.90;;;12.62;100.00;97645.22;4982085;28;20150;-74
2023/06/15 00:20:45;;;;;;;3.88;2.10;;;14.00;99.90;;;12.62;100.00;97642.63;5006220;28;20061;-74
2023/06/15 00:23:12;;;;;;;5.07;2.00;;;13.90;99.90;;;12.65;100.00;97647.69;4984743;28;20550;-74
2023/06/15 00:25:39;;;;;;;5.10;1.77;;;13.90;99.90;;;12.63;100.00;97646.06;4978408;28;20054;-74
2023/06/15 00:28:06;;;;;;;6.47;2.03;;;13.90;99.90;;;12.54;100.00;97652.56;4981083;28;20078;-74
2023/06/15 00:30:33;;;;;;;5.50;2.10;;;13.80;99.90;;;12.38;100.00;97652.47;4978456;28;20510;-73
2023/06/15 00:33:00;;;;;;;5.10;2.08;;;13.80;99.90;;;12.31;100.00;97653.69;4979568;28;20070;-74
2023/06/15 00:35:27;;;;;;;3.20;2.05;;;13.70;99.90;;;12.27;100.00;97654.75;4979208;28;20057;-74
2023/06/15 00:37:54;;;;;;;6.22;2.45;;;13.60;99.90;;;12.37;100.00;97655.19;4982353;28;20570;-74
2023/06/15 00:40:22;;;;;;;4.30;1.80;;;13.60;99.90;;;12.28;100.00;97664.25;4982679;28;20063;-74
2023/06/15 00:42:49;;;;;;;4.55;2.20;;;13.60;99.90;;;12.26;100.00;97655.69;4979304;28;20082;-74
2023/06/15 00:45:16;;;;;;;4.25;2.45;;;13.50;99.90;;;12.31;100.00;97658.91;4982973;28;20194;-74
2023/06/15 00:47:46;;;;;;;4.97;2.00;;;13.50;99.90;;;12.28;100.00;97664.25;4982052;28;20058;-75
2023/06/15 00:50:15;;;;;;;5.07;2.00;;;13.50;99.90;;;12.24;100.00;97658.34;4991183;28;20054;-74
2023/06/15 00:52:44;;;;;;;4.53;2.15;;;13.50;99.90;;;12.19;100.00;97664.72;4995581;28;20427;-75
2023/06/15 00:55:13;;;;;;;4.13;2.20;;;13.40;99.90;;;12.05;100.00;97663.59;4993584;28;20054;-74
2023/06/15 00:57:44;;;;;;;5.25;2.13;;;13.40;99.90;;;12.08;100.00;97660.84;5011297;28;20530;-74
2023/06/15 01:00:14;;;;;;;3.75;2.25;;;13.30;99.90;;;12.13;100.00;97666.69;4983190;28;20042;-74
2023/06/15 01:02:42;;;;;;;4.53;2.53;;;13.40;99.90;;;12.06;100.00;97659.22;4992141;28;20065;-74
2023/06/15 01:05:10;;;;;;;4.45;2.13;;;13.40;99.90;;;11.91;100.00;97664.25;4998986;28;20058;-74
2023/06/15 01:07:46;;;;;;;5.68;1.80;;;13.30;99.90;;;11.98;100.00;97663.97;4999022;28;20050;-74
2023/06/15 01:10:23;;;;;;;5.22;2.42;;;13.30;99.90;;;11.89;100.00;97668.66;4980303;28;20064;-74
2023/06/15 01:12:53;;;;;;;4.68;2.53;;;13.20;99.90;;;11.85;100.00;97664.50;4991289;28;20068;-74
2023/06/15 01:15:24;;;;;;;7.55;2.50;;;13.10;99.90;;;11.80;100.00;97663.03;4981358;28;20043;-74
2023/06/15 01:17:59;;;;;;;4.20;2.22;;;13.10;99.90;;;11.81;100.00;97662.94;4978586;28;20467;-74
2023/06/15 01:20:38;;;;;;;3.95;2.30;;;13.10;99.90;;;11.76;100.00;97666.69;4966680;28;20101;-74
2023/06/15 01:23:50;;;;;;;3.67;2.22;;;13.00;99.90;;;11.72;100.00;97663.38;4992446;28;20113;-74
2023/06/15 01:26:20;;;;;;;4.28;1.90;;;13.00;99.90;;;11.69;100.00;97666.13;4981999;28;21066;-75
2023/06/15 01:28:52;;;;;;;3.72;2.30;;;13.00;99.90;;;11.75;100.00;97665.84;4980378;28;20053;-74
2023/06/15 01:31:20;;;;;;;3.50;2.17;;;12.90;99.90;;;11.66;100.00;97658.47;5011888;28;20067;-74
2023/06/15 01:33:51;;;;;;;4.70;2.30;;;12.90;99.90;;;11.62;100.00;97662.94;4978679;28;20053;-74
2023/06/15 01:36:19;;;;;;;5.63;2.42;;;12.90;99.90;;;11.42;100.00;97663.00;5016334;28;20497;-74
2023/06/15 01:38:52;;;;;;;4.78;2.55;;;12.90;99.90;;;11.41;100.00;97661.31;4998283;28;20069;-74
2023/06/15 01:41:22;;;;;;;8.23;2.67;;;12.70;99.90;;;11.42;100.00;97658.63;4990688;28;20063;-74
2023/06/15 01:43:51;;;;;;;6.40;2.35;;;12.70;99.90;;;11.29;100.00;97660.13;5010472;28;20070;-75
2023/06/15 01:46:19;;;;;;;4.65;2.33;;;12.70;99.90;;;11.34;100.00;97670.31;4977658;28;20050;-74
2023/06/15 01:48:46;;;;;;;3.80;2.20;;;12.60;99.90;;;11.31;100.00;97668.66;4990224;28;20162;-74
2023/06/15 01:51:15;;;;;;;4.53;2.55;;;12.50;99.90;;;11.30;100.00;97672.19;4998141;28;20850;-74
2023/06/15 01:53:43;;;;;;;4.15;2.65;;;12.50;99.90;;;11.26;100.00;97671.47;5010912;28;20562;-75
2023/06/15 01:56:10;;;;;;;3.40;2.47;;;12.50;99.90;;;11.29;100.00;97667.91;4981453;28;20042;-74
2023/06/15 01:58:38;;;;;;;5.65;2.45;;;12.50;99.90;;;11.30;100.00;97662.63;4978315;28;20174;-74
2023/06/15 02:01:05;;;;;;;4.78;2.55;;;12.50;99.90;;;11.32;100.00;97664.34;4982317;28;20054;-74
2023/06/15 02:03:32;;;;;;;4.13;2.25;;;12.60;99.90;;;11.24;100.00;97665.53;4978208;28;20110;-74
2023/06/15 02:05:59;;;;;;;3.92;2.25;;;12.60;99.90;;;11.18;100.00;97668.38;4983517;28;20054;-74
2023/06/15 02:08:27;;;;;;;6.15;2.75;;;12.50;99.90;;;11.23;100.00;97673.38;4975828;28;20071;-74
2023/06/15 02:10:54;;;;;;;3.30;2.35;;;12.40;99.90;;;11.17;100.00;97677.06;4980069;28;20097;-75
2023/06/15 02:13:21;;;;;;;6.90;2.60;;;12.40;99.90;;;11.20;100.00;97676.09;4980249;28;20158;-74
2023/06/15 02:15:49;;;;;;;4.50;2.80;;;12.40;99.90;;;11.16;100.00;97674.56;4976309;28;20050;-73
2023/06/15 02:18:16;;;;;;;4.00;2.70;;;12.40;99.90;;;11.13;100.00;97677.25;4974745;28;20484;-74
2023/06/15 02:20:44;;;;;;;5.30;2.53;;;12.40;99.90;;;11.10;100.00;97686.03;4976698;28;20112;-74
2023/06/15 02:23:12;;;;;;;6.15;2.75;;;12.40;99.90;;;11.03;100.00;97682.84;4982127;28;20081;-74
2023/06/15 02:25:40;;;;;;;4.43;2.80;;;12.40;99.90;;;10.98;100.00;97683.97;5010468;28;20054;-75
2023/06/15 02:28:07;;;;;;;3.60;2.33;;;12.30;99.90;;;10.91;100.00;97693.78;4980852;28;20951;-77
2023/06/15 02:30:34;;;;;;;4.07;2.50;;;12.20;99.90;;;10.92;100.00;97682.47;4978514;28;20129;-75
2023/06/15 02:33:02;;;;;;;3.83;2.58;;;12.20;99.90;;;10.83;100.00;97685.44;4978151;28;20133;-75
2023/06/15 02:35:30;;;;;;;4.80;2.50;;;12.10;99.90;;;10.77;100.00;97686.56;4981491;28;20661;-74
2023/06/15 02:37:57;;;;;;;4.28;2.63;;;12.10;99.90;;;10.65;100.00;97690.53;4979119;28;20050;-74
2023/06/15 02:40:24;;;;;;;5.45;2.45;;;12.00;99.90;;;10.57;100.00;97689.97;4979672;28;20051;-74
2023/06/15 02:42:51;;;;;;;5.07;3.00;;;11.90;99.90;;;10.56;100.00;97693.50;4982717;28;20050;-75
2023/06/15 02:45:20;;;;;;;4.55;2.72;;;11.80;99.90;;;10.49;100.00;97701.56;4983653;28;20059;-74
2023/06/15 02:47:47;;;;;;;4.13;2.67;;;11.80;99.90;;;10.39;100.00;97701.09;4978882;28;20129;-75
2023/06/15 02:50:14;;;;;;;5.47;3.00;;;11.70;99.90;;;10.40;100.00;97706.25;4978912;28;20393;-75
2023/06/15 02:52:45;;;;;;;3.97;2.63;;;11.60;99.90;;;10.34;100.00;97703.88;4977146;28;20046;-75
2023/06/15 02:55:13;;;;;;;3.83;2.45;;;11.60;99.90;;;10.33;100.00;97709.13;4983314;28;20050;-75
2023/06/15 02:57:41;;;;;;;4.60;2.83;;;11.50;99.90;;;10.35;100.00;97699.53;4975037;28;20125;-75
2023/06/15 03:00:12;;;;;;;5.90;3.00;;;11.50;99.90;;;10.27;100.00;97705.84;4978719;28;20757;-75
2023/06/15 03:02:42;;;;;;;3.83;2.28;;;11.50;99.90;;;10.30;100.00;97710.09;4977730;28;20145;-75
2023/06/15 03:05:11;;;;;;;5.47;2.63;;;11.50;99.90;;;10.33;100.00;97711.72;4984135;28;20042;-75
2023/06/15 03:07:40;;;;;;;3.60;2.05;;;11.50;99.90;;;10.30;100.00;97712.69;4976569;28;20046;-74
2023/06/15 03:10:08;;;;;;;4.28;2.72;;;11.60;99.90;;;10.41;100.00;97710.50;4983741;28;20050;-74
2023/06/15 03:12:36;;;;;;;6.13;2.83;;;11.50;99.90;;;10.45;100.00;97714.69;4979173;28;20054;-74
2023/06/15 03:15:04;;;;;;;3.95;3.05;;;11.60;99.90;;;10.54;100.00;97717.81;4979594;28;21911;-74
2023/06/15 03:17:32;;;;;;;4.43;2.42;;;11.60;99.90;;;10.62;100.00;97716.56;4975614;28;20042;-74
2023/06/15 03:20:00;;;;;;;4.28;2.50;;;11.70;99.90;;;10.65;100.00;97713.00;4977841;28;20133;-74
2023/06/15 03:22:27;;;;;;;4.35;2.22;;;11.70;99.90;;;10.80;100.00;97709.78;4977417;28;20091;-75
2023/06/15 03:24:55;;;;;;;4.18;2.28;;;11.80;99.90;;;10.67;100.00;97706.00;4981391;28;20476;-75
2023/06/15 03:27:22;;;;;;;6.32;2.55;;;11.90;99.90;;;10.76;100.00;97709.97;5005845;28;20051;-74
2023/06/15 03:29:51;;;;;;;4.13;2.47;;;11.90;99.90;;;10.65;100.00;97713.88;4990695;28;20051;-74
2023/06/15 03:32:18;;;;;;;5.57;2.78;;;11.90;99.90;;;10.83;100.00;97714.00;4992818;28;20432;-75
2023/06/15 03:34:46;;;;;;;9.00;2.22;;;11.90;99.90;;;10.91;100.00;97717.16;5010968;28;20050;-74
2023/06/15 03:37:14;;;;;;;3.67;2.60;;;11.90;99.90;;;10.91;100.00;97714.56;4975370;28;20043;-75
2023/06/15 03:39:41;;;;;;;4.10;2.10;;;12.00;99.90;;;10.86;100.00;97725.13;5006458;28;20046;-75
2023/06/15 03:42:08;;;;;;;3.83;2.55;;;12.00;99.90;;;10.82;100.00;97726.16;4976462;28;20068;-73
2023/06/15 03:44:39;;;;;;;4.63;2.60;;;12.00;99.90;;;10.83;100.00;97730.47;4983803;28;20475;-75
2023/06/15 03:47:06;;;;;;;3.83;2.58;;;12.00;99.90;;;10.77;100.00;97728.09;4980000;28;20097;-74
2023/06/15 03:49:33;;;;;;;4.38;2.25;;;11.90;99.90;;;10.69;100.00;97737.94;4978856;28;20046;-75
2023/06/15 03:52:00;;;;;;;2.83;1.98;;;12.00;99.90;;;10.66;100.00;97738.09;4977838;28;20137;-74
2023/06/15 03:54:28;;;;;;;5.03;2.10;;;11.90;99.90;;;10.64;100.00;97745.09;4979994;28;20051;-74
2023/06/15 03:56:54;;;;;;;3.47;2.38;;;11.90;99.90;;;10.62;100.00;97746.91;4993965;28;20153;-75
2023/06/15 03:59:23;;;;;;;5.28;3.05;;;11.80;99.90;;;10.62;100.00;97746.91;5005741;28;20426;-75
2023/06/15 04:01:50;;;;;;;5.25;2.47;;;11.80;99.90;;;10.64;100.00;97747.69;4977507;28;20058;-74
2023/06/15 04:04:17;;;;;;;4.07;2.72;;;11.80;99.90;;;10.60;100.00;97749.53;4974893;28;20237;-74
2023/06/15 04:06:47;;;;;;;3.85;1.95;;;11.80;99.90;;;10.64;100.00;97745.91;4976716;28;20080;-74
2023/06/15 04:09:14;;;;;;;6.53;2.75;;;11.90;99.90;;;10.74;100.00;97751.59;4975859;28;20451;-75
2023/06/15 04:11:41;;;;;;;4.75;2.42;;;11.90;99.90;;;10.73;100.00;97755.09;4976885;28;20076;-75
2023/06/15 04:14:08;;;;;;;7.32;2.20;;;11.90;99.90;;;10.74;100.00;97751.59;4976337;28;20579;-75
2023/06/15 04:16:35;;;;;;;4.95;2.83;;;11.90;99.90;;;10.86;100.00;97758.88;4976126;28;20058;-75
2023/06/15 04:19:03;;;;;;;5.53;2.58;;;11.90;99.90;;;10.94;100.00;97750.78;4975155;28;20051;-74
2023/06/15 04:21:30;;;;;;;4.40;2.38;;;12.00;99.90;;;11.00;100.00;97753.13;5010082;28;20137;-74
2023/06/15 04:23:58;;;;;;;4.68;2.80;;;12.00;99.90;;;11.08;100.00;97752.78;4980677;28;20533;-74
2023/06/15 04:26:26;;;;;;;3.95;2.38;;;12.10;99.90;;;11.12;100.00;97750.94;4980799;28;20070;-75
2023/06/15 04:28:57;;;;;;;3.97;2.67;;;12.10;99.90;;;11.33;100.00;97751.75;4981871;28;20110;-75
2023/06/15 04:31:24;;;;;;;4.00;2.20;;;12.20;99.90;;;11.39;100.00;97748.91;4979958;28;20161;-75
2023/06/15 04:33:58;;;;;;;4.28;2.50;;;12.30;99.90;;;11.48;100.00;97756.31;5012647;28;20116;-75
2023/06/15 04:36:27;;;;;;;4.22;2.65;;;12.40;99.90;;;11.58;100.00;97757.59;4978795;28;20054;-74
2023/06/15 04:38:55;;;;;;;5.57;2.60;;;12.50;99.90;;;11.86;100.00;97748.56;4983975;28;20519;-75
2023/06/15 04:41:22;;;;;;;4.55;2.42;;;12.60;99.90;;;11.84;100.00;97753.84;4984488;28;20145;-75
2023/06/15 04:43:50;;;;;;;5.95;2.72;;;12.70;99.90;;;12.09;100.00;97758.81;4978548;28;20046;-75
2023/06/15 04:46:18;;;;;;;4.93;2.25;;;12.80;99.90;;;12.23;100.00;97760.78;4980477;28;20140;-75
2023/06/15 04:48:45;;;;;;;3.97;2.47;;;12.90;99.90;;;12.19;100.00;97755.78;4979167;28;20144;-75
2023/06/15 04:51:14;;;;;;;5.32;2.70;;;13.10;99.90;;;12.36;100.00;97761.03;4980678;28;20046;-74
2023/06/15 04:53:42;;;;;;;4.45;2.70;;;13.10;99.90;;;12.33;100.00;97767.22;4980835;28;20514;-75
2023/06/15 04:56:11;;;;;;;5.13;3.00;;;13.20;99.90;;;12.42;100.00;97765.13;5011763;28;20051;-74
2023/06/15 04:58:38;;;;;;;5.03;2.45;;;13.30;99.90;;;12.55;100.00;97761.88;4978096;28;20047;-75
2023/06/15 05:01:06;;;;;;;6.07;2.42;;;13.40;99.90;;;12.73;100.00;97748.88;4980270;28;20050;-74
2023/06/15 05:03:34;;;;;;;3.83;2.70;;;13.50;99.90;;;12.89;100.00;97759.41;4976224;28;20427;-75
2023/06/15 05:06:02;;;;;;;3.25;2.38;;;13.60;99.90;;;12.99;100.00;97752.81;5008734;28;20197;-76
2023/06/15 05:08:29;;;;;;;3.75;2.42;;;13.70;99.90;;;13.15;100.00;97747.69;4979232;28;20112;-75
2023/06/15 05:10:57;;;;;;;3.97;2.33;;;13.90;99.90;;;13.33;100.00;97740.72;4976990;28;20053;-74
2023/06/15 05:13:25;;;;;;;6.68;2.83;;;14.00;99.90;;;13.49;100.00;97736.41;5010466;28;20739;-74
2023/06/15 05:15:53;;;;;;;5.38;2.50;;;14.10;99.90;;;13.69;100.00;97740.59;4959270;28;20053;-75
2023/06/15 05:18:26;;;;;;;6.28;2.45;;;14.20;99.90;;;13.81;100.00;97734.72;5007567;28;20754;-75
2023/06/15 05:20:53;;;;;;;5.55;2.65;;;14.40;99.90;;;13.98;100.00;97738.19;4981005;28;20149;-75
2023/06/15 05:23:21;;;;;;;6.22;2.40;;;14.60;99.90;;;14.12;100.00;97735.69;5010393;28;20085;-74
2023/06/15 05:25:48;;;;;;;3.95;2.08;;;14.80;99.90;;;14.29;100.00;97736.53;4979695;28;20089;-74
2023/06/15 05:28:20;;;;;;;3.55;2.33;;;14.90;99.90;;;14.33;100.00;97733.66;4978770;28;20174;-74
2023/06/15 05:30:48;;;;;;;4.55;2.20;;;15.10;99.90;;;14.53;100.00;97735.16;4979407;28;20160;-75
2023/06/15 05:33:15;;;;;;;3.47;2.15;;;15.20;99.90;;;14.62;100.00;97726.00;4976946;28;20145;-74
2023/06/15 05:35:42;;;;;;;3.33;2.13;;;15.30;99.90;;;14.69;100.00;97724.72;4967896;28;20050;-75
2023/06/15 05:38:09;;;;;;;4.25;2.33;;;15.40;99.90;;;14.77;100.00;97734.72;4984185;28;20475;-74
2023/06/15 05:40:36;;;;;;;3.33;2.08;;;15.50;99.90;;;14.99;100.00;97734.34;4979890;28;20466;-75
2023/06/15 05:43:04;;;;;;;5.45;1.95;;;15.60;99.90;;;15.11;100.00;97736.25;4980325;28;20054;-75
2023/06/15 05:45:31;;;;;;;3.08;2.30;;;15.70;99.90;;;15.04;100.00;97738.38;4996294;28;20050;-74
2023/06/15 05:47:58;;;;;;;3.60;2.28;;;15.80;99.90;;;15.24;100.00;97739.81;4994371;28;20142;-74
2023/06/15 05:50:25;;;;;;;3.83;2.20;;;15.90;99.90;;;15.35;100.00;97735.72;4980817;28;20144;-74
2023/06/15 05:52:53;;;;;;;2.85;1.98;;;16.00;99.90;;;15.33;100.00;97742.84;4984640;28;20053;-75
2023/06/15 05:55:20;;;;;;;3.30;2.30;;;16.10;99.90;;;15.45;100.00;97742.94;4982556;28;20105;-74
2023/06/15 05:57:47;;;;;;;3.15;2.30;;;16.10;99.90;;;15.50;100.00;97741.81;4979926;28;20042;-74
2023/06/15 06:00:15;;;;;;;4.30;2.20;;;16.20;99.90;;;15.48;100.00;97744.53;4978129;28;20054;-74
2023/06/15 06:02:43;;;;;;;3.92;2.00;;;16.30;99.90;;;15.79;100.00;97745.34;4979861;28;20069;-74
2023/06/15 06:05:10;;;;;;;4.13;2.15;;;16.40;99.90;;;15.77;100.00;97741.97;4975203;28;20079;-75
2023/06/15 06:07:37;;;;;;;3.22;2.25;;;16.50;99.90;;;15.98;100.00;97751.09;4977354;28;20184;-74
2023/06/15 06:10:06;;;;;;;4.88;2.22;;;16.60;99.90;;;15.95;100.00;97748.69;4978798;28;20422;-74
2023/06/15 06:12:37;;;;;;;7.40;2.40;;;16.70;99.90;;;15.99;100.00;97749.34;4975033;28;20681;-76
2023/06/15 06:15:06;;;;;;;4.63;1.95;;;16.80;99.90;;;16.22;100.00;97755.78;4978953;28;20483;-76
2023/06/15 06:17:33;;;;;;;3.60;2.13;;;16.80;99.90;;;16.38;100.00;97748.63;4992138;28;20046;-75
2023/06/15 06:20:05;;;;;;;4.45;2.30;;;16.90;99.90;;;16.54;100.00;97748.50;4982493;28;20578;-76
2023/06/15 06:22:32;;;;;;;3.20;2.25;;;17.10;99.90;;;16.38;100.00;97743.38;4983863;28;20133;-76
2023/06/15 06:24:59;;;;;;;6.70;2.80;;;17.10;99.90;;;16.23;100.00;97744.34;4965458;28;20108;-76
2023/06/15 06:27:26;;;;;;;5.60;2.85;;;17.00;99.90;;;16.17;100.00;97750.81;4979083;28;20050;-74
2023/06/15 06:29:53;;;;;;;3.85;2.35;;;17.00;99.90;;;16.17;100.00;97744.72;4977053;28;20057;-77
2023/06/15 06:32:20;;;;;;;6.05;2.65;;;17.10;99.90;;;16.24;100.00;97746.88;4975680;28;20110;-75
2023/06/15 06:34:47;;;;;;;5.60;3.15;;;17.10;99.90;;;16.42;100.00;97747.50;5010382;28;20046;-77
2023/06/15 06:37:14;;;;;;;7.13;2.60;;;17.20;99.90;;;16.69;100.00;97742.28;4960891;28;20649;-74
2023/06/15 06:39:42;;;;;;;13.43;2.75;;;17.30;99.90;;;16.84;100.00;97747.47;4974092;28;20102;-74
2023/06/15 06:42:09;;;;;;;5.43;2.72;;;17.40;99.90;;;17.07;100.00;97740.72;4978877;28;20132;-74
2023/06/15 06:44:37;;;;;;;5.78;2.60;;;17.60;99.90;;;16.87;100.00;97745.47;4980588;28;20101;-74
2023/06/15 06:47:04;;;;;;;5.18;2.78;;;17.60;99.90;;;16.97;100.00;97743.13;5010008;28;20046;-74
2023/06/15 06:49:31;;;;;;;5.43;2.80;;;17.70;99.90;;;17.11;100.00;97744.81;4964749;28;20058;-74
2023/06/15 06:51:58;;;;;;;6.60;2.60;;;17.80;99.90;;;17.27;100.00;97739.41;4978033;28;20130;-75
2023/06/15 06:54:25;;;;;;;7.15;2.83;;;17.90;99.90;;;17.39;100.00;97748.22;5008701;28;20069;-76
2023/06/15 06:56:52;;;;;;;4.35;2.38;;;18.10;99.90;;;17.45;100.00;97745.19;4976706;28;20047;-74
2023/06/15 06:59:20;;;;;;;8.65;2.63;;;18.10;99.90;;;17.52;100.00;97746.44;4974569;28;20762;-75
2023/06/15 07:02:07;;;;;;;9.90;2.55;;;18.20;99.90;;;17.61;100.00;97751.06;4977651;28;20057;-75
2023/06/15 07:04:34;;;;;;;6.53;2.70;;;18.20;99.90;;;17.55;100.00;97746.22;4977137;28;20053;-75
2023/06/15 07:07:01;;;;;;;6.00;2.60;;;18.40;99.90;;;17.76;100.00;97744.75;4980023;28;20186;-75
2023/06/15 07:09:28;;;;;;;3.70;2.22;;;18.50;99.90;;;18.00;100.00;97749.28;4976689;28;20054;-74
2023/06/15 07:11:55;;;;;;;6.07;2.20;;;18.60;99.90;;;17.96;100.00;97750.44;4977240;28;20042;-74
2023/06/15 07:14:22;;;;;;;4.47;2.17;;;18.70;99.90;;;18.25;100.00;97745.78;4976928;28;20185;-75
2023/06/15 07:16:49;;;;;;;7.05;2.38;;;18.90;99.90;;;18.61;100.00;97749.34;4977738;28;20074;-74
2023/06/15 07:19:17;;;;;;;3.13;2.03;;;19.10;99.90;;;18.77;100.00;97742.03;4975603;28;20055;-75
2023/06/15 07:21:44;;;;;;;4.60;2.13;;;19.30;99.90;;;18.66;100.00;97741.94;5006452;28;20059;-74
2023/06/15 07:24:11;;;;;;;3.30;1.98;;;19.50;99.90;;;18.99;100.00;97740.44;5007492;28;20188;-74
2023/06/15 07:26:38;;;;;;;6.10;2.40;;;19.50;99.90;;;19.10;100.00;97743.13;4976416;28;20086;-74
2023/06/15 07:29:06;;;;;;;4.00;1.80;;;19.70;99.90;;;19.17;100.00;97731.16;4988703;28;20487;-75
2023/06/15 07:31:33;;;;;;;4.38;1.85;;;19.80;99.90;;;19.26;100.00;97740.16;4977542;28;20109;-75
2023/06/15 07:34:02;;;;;;;3.78;2.20;;;19.90;99.90;;;18.97;100.00;97731.81;4982406;28;20145;-75
2023/06/15 07:36:29;;;;;;;3.80;2.17;;;20.00;99.90;;;19.25;100.00;97727.97;4975776;28;20043;-74
2023/06/15 07:38:56;;;;;;;4.47;1.73;;;20.00;99.90;;;19.58;100.00;97731.63;4978679;28;20411;-75
2023/06/15 07:41:23;;;;;;;3.60;2.08;;;20.10;99.90;;;19.78;100.00;97732.75;4979389;28;20784;-75
2023/06/15 07:43:50;;;;;;;4.53;2.42;;;20.30;99.90;;;19.84;100.00;97732.25;4975344;28;20058;-74
2023/06/15 07:46:17;;;;;;;3.63;1.92;;;20.40;99.90;;;19.87;100.00;97731.22;4973469;28;20134;-75
2023/06/15 07:48:48;;;;;;;4.60;1.80;;;20.50;99.90;;;19.97;100.00;97735.63;4976744;28;20057;-75
2023/06/15 07:51:15;;;;;;;4.00;1.83;;;20.60;99.90;;;19.82;100.00;97739.47;4975999;28;20884;-74
2023/06/15 07:54:03;;;;;;;4.38;2.08;;;20.70;99.90;;;20.30;100.00;97736.56;4981916;28;20048;-75
2023/06/15 07:56:30;;;;;;;3.10;1.95;;;20.70;99.90;;;19.97;100.00;97740.88;4977542;28;20129;-75
2023/06/15 07:58:57;;;;;;;6.72;2.00;;;20.80;99.90;;;19.99;100.00;97741.59;4991164;28;20074;-74
2023/06/15 08:01:24;;;;;;;5.70;2.05;;;20.80;99.90;;;20.08;100.00;97745.31;4978887;28;20164;-75
2023/06/15 08:03:51;;;;;;;3.63;2.20;;;20.90;99.90;;;19.92;100.00;97740.41;4977220;28;20172;-75
2023/06/15 08:06:18;;;;;;;3.72;2.10;;;20.80;99.90;;;20.33;100.00;97738.09;4977184;28;20089;-75
2023/06/15 08:08:46;;;;;;;3.28;1.90;;;21.00;99.90;;;20.12;100.00;97740.66;4995273;28;20491;-74
2023/06/15 08:11:13;;;;;;;5.97;1.77;;;21.10;99.90;;;20.38;100.00;97728.84;4970535;28;20089;-75
2023/06/15 08:13:40;;;;;;;4.57;2.03;;;21.00;99.90;;;20.69;100.00;97734.34;4982102;28;20116;-75
2023/06/15 08:16:07;;;;;;;5.05;2.17;;;21.10;99.90;;;20.87;100.00;97732.00;4979131;28;20170;-75
2023/06/15 08:18:34;;;;;;;6.05;1.98;;;21.30;99.90;;;20.68;100.00;97732.66;4976824;28;20051;-75
2023/06/15 08:21:01;;;;;;;10.10;2.50;;;21.40;99.90;;;20.89;100.00;97736.19;4992813;28;20050;-75
2023/06/15 08:23:31;;;;;;;4.78;1.73;;;21.50;99.90;;;21.04;100.00;97735.88;4979705;28;20133;-75
2023/06/15 08:25:58;;;;;;;8.35;2.45;;;21.70;99.90;;;20.86;100.00;97732.94;4982007;28;20062;-75
2023/06/15 08:28:26;;;;;;;4.70;1.90;;;21.80;99.40;;;21.03;100.00;97724.50;4982926;28;20078;-75
2023/06/15 08:30:53;;;;;;;4.15;2.30;;;21.80;99.70;;;20.86;100.00;97733.78;4980505;28;20559;-75
2023/06/15 08:33:20;;;;;;;5.65;2.15;;;21.70;99.90;;;21.38;100.00;97730.44;4979398;28;20527;-75
2023/06/15 08:35:47;;;;;;;2.90;1.83;;;21.80;99.90;;;21.67;100.00;97736.75;4992273;28;20522;-75
2023/06/15 08:38:14;;;;;;;4.72;2.00;;;22.00;99.90;;;22.40;100.00;97731.34;4986682;28;20239;-75
2023/06/15 08:40:42;;;;;;;4.07;2.05;;;22.40;99.90;;;22.04;100.00;97736.22;4982241;28;20078;-75
2023/06/15 08:43:17;;;;;;;3.45;2.08;;;22.30;98.90;;;22.01;100.00;97727.69;4977073;28;20142;-75
2023/06/15 08:45:48;;;;;;;3.03;1.98;;;22.50;98.60;;;22.44;100.00;97730.09;4993142;28;20630;-76
2023/06/15 08:48:16;;;;;;;3.90;1.80;;;22.50;98.30;;;22.97;100.00;97731.53;4977488;28;20863;-75
2023/06/15 08:50:45;;;;;;;8.82;2.03;;;22.60;98.40;;;23.21;100.00;97727.66;4977442;28;20129;-75
2023/06/15 08:53:17;;;;;;;3.75;1.88;;;22.80;97.60;;;23.15;100.00;97721.13;4992387;28;20145;-75
2023/06/15 08:55:46;;;;;;;6.40;2.25;;;23.10;97.10;;;23.25;100.00;97729.88;4983492;28;20074;-75
2023/06/15 08:58:13;;;;;;;8.18;2.00;;;23.40;96.40;;;23.77;100.00;97714.44;4967406;28;20074;-75
2023/06/15 09:00:41;;;;;;;3.05;1.90;;;23.80;95.60;;;23.41;100.00;97725.81;4984195;28;20070;-75
2023/06/15 09:03:13;;;;;;;5.05;1.90;;;24.20;94.60;;;24.45;100.00;97725.69;5010531;28;20181;-75
2023/06/15 09:05:40;;;;;;;4.30;1.90;;;24.60;94.50;;;24.61;100.00;97724.09;5010020;28;20047;-75
2023/06/15 09:08:08;;;;;;;5.32;2.03;;;;;;;24.46;100.00;97720.25;4984667;28;20168;-75
2023/06/15 09:10:38;;;;;;;4.20;1.95;;;25.20;91.90;;;24.16;100.00;97724.06;4981492;28;20059;-75
2023/06/15 09:13:06;;;;;;;7.60;1.50;;;25.50;91.30;;;23.99;100.00;97721.22;4970754;28;20125;-74
2023/06/15 09:15:36;;;;;;;5.78;1.65;;;25.70;90.60;;;24.38;100.00;97721.00;4979663;28;20062;-75
2023/06/15 09:18:03;;;;;;;5.35;1.80;;;25.90;90.40;;;24.42;100.00;97725.00;4982835;28;20139;-76
2023/06/15 09:20:37;;;;;;;3.10;1.88;;;26.20;88.80;;;23.96;100.00;97723.31;4977832;28;20053;-75
2023/06/15 09:23:10;;;;;;;3.47;1.55;;;26.40;85.50;;;24.12;98.43;97723.50;4963305;28;20055;-75
2023/06/15 09:25:48;;;;;;;3.63;1.88;;;26.50;83.20;;;24.75;100.00;97716.59;4968024;28;20062;-75
2023/06/15 09:28:15;;;;;;;2.63;1.33;;;26.60;84.30;;;25.36;99.04;97715.81;4971008;28;20061;-78
2023/06/15 09:30:42;;;;;;;4.72;1.50;;;26.80;83.50;;;26.26;92.59;97708.31;4972726;28;20085;-77
2023/06/15 09:33:15;;;;;;;5.18;1.67;;;27.30;83.20;;;25.54;92.25;97717.56;4974389;28;20121;-76
2023/06/15 09:36:05;;;;;;;4.40;1.60;;;27.60;80.80;;;26.05;90.66;97711.41;4963577;28;20050;-76
2023/06/15 09:38:41;;;;;;;3.50;1.30;;;27.80;80.10;;;26.55;88.87;97712.44;4975535;28;20057;-77
2023/06/15 09:41:09;;;;;;;4.30;1.17;;;28.20;79.30;;;25.78;88.15;97716.91;4974684;28;20051;-76
2023/06/15 09:43:40;;;;;;;3.63;1.50;;;28.30;77.60;;;26.83;82.23;97712.97;4972039;28;20058;-76
2023/06/15 09:46:16;;;;;;;2.90;1.20;;;28.50;76.20;;;26.37;82.12;97714.38;4980340;28;20056;-77
2023/06/15 09:48:46;;;;;;;3.15;1.30;;;28.80;74.90;;;26.06;81.02;97712.25;4976241;28;20055;-77
2023/06/15 09:51:18;;;;;;;2.13;1.27;;;28.60;74.40;;;26.23;78.67;97715.81;4973924;28;20133;-77
2023/06/15 09:53:51;;;;;;;4.28;1.67;;;28.60;73.40;;;26.36;78.83;97716.16;4990220;28;20665;-77
2023/06/15 09:56:21;;;;;;;2.78;1.30;;;28.40;74.00;;;26.87;79.69;97708.16;4974250;28;20149;-77
2023/06/15 09:59:02;;;;;;;2.63;1.23;;;28.50;73.80;;;26.92;76.81;97709.31;4971475;28;20294;-77
2023/06/15 10:01:34;;;;;;;3.22;1.48;;;28.60;73.10;;;26.36;77.76;97716.16;4977859;28;20454;-78
2023/06/15 10:04:03;;;;;;;;;;;28.70;73.10;;;26.32;76.37;97714.84;4980782;28;20047;-77
2023/06/15 10:06:35;;;;;;;3.53;1.30;;;28.30;72.20;;;26.06;76.31;97715.72;5008771;28;19980;-76
2023/06/15 10:09:06;;;;;;;5.68;1.40;;;28.20;71.60;;;27.10;75.44;97706.50;4966461;28;20066;-77
2023/06/15 10:11:40;;;;;;;5.65;1.27;;;28.10;72.20;;;27.10;70.31;97706.50;4978832;28;20172;-77
2023/06/15 10:14:25;;;;;;;3.00;1.02;;;28.50;70.30;;;26.68;70.03;97707.44;4960707;28;20053;-76
2023/06/15 10:17:01;;;;;;;3.17;1.00;;;28.60;69.30;;;27.07;69.36;97709.50;4980439;28;20051;-78
2023/06/15 10:19:32;;;;;;;1.98;1.02;;;28.60;69.60;;;26.78;67.10;97709.16;4988031;28;20068;-76